createdAt,value
2019-04-20T00:00:58.509Z,101510.77
2019-04-20T00:03:34.377Z,101509.41
2019-04-20T00:05:57.319Z,101509.06
2019-04-20T00:08:29.574Z,101506.81
2019-04-20T00:11:04.162Z,101507.84
2019-04-20T00:13:37.844Z,101508.34
2019-04-20T00:15:56.307Z,101504.23
2019-04-20T00:18:32.478Z,101502.02
2019-04-20T00:21:02.571Z,101503.02
2019-04-20T00:23:33.514Z,101503.02
2019-04-20T00:26:16.176Z,101504.38
2019-04-20T00:28:58.944Z,101503.66
2019-04-20T00:31:23.575Z,101508.64
2019-04-20T00:33:47.929Z,101520.63
2019-04-20T00:36:07.420Z,101514.42
2019-04-20T00:38:43.668Z,101512.91
2019-04-20T00:41:11.715Z,101503.47
2019-04-20T00:43:40.398Z,101505.87
2019-04-20T00:46:19.628Z,101509.98
2019-04-20T00:48:48.478Z,101507.39
2019-04-20T00:51:24.083Z,101510.12
2019-04-20T00:53:43.188Z,101502.41
2019-04-20T00:56:08.245Z,101502.41
2019-04-20T00:58:50.620Z,101505.30
2019-04-20T01:01:27.751Z,101504.95
2019-04-20T01:03:50.894Z,101504.95
2019-04-20T01:06:26.981Z,101507.70
2019-04-20T01:08:44.277Z,101504.08
2019-04-20T01:11:16.727Z,101494.16
2019-04-20T01:13:50.476Z,101500.63
2019-04-20T01:16:24.067Z,101498.76
2019-04-20T01:18:43.766Z,101501.99
2019-04-20T01:21:19.435Z,101501.65
2019-04-20T01:23:50.694Z,101505.26
2019-04-20T01:26:17.313Z,101511.73
2019-04-20T01:28:58.506Z,101510.89
2019-04-20T01:31:25.434Z,101512.41
2019-04-20T01:33:57.721Z,101510.52
2019-04-20T01:36:36.970Z,101504.20
2019-04-20T01:39:00.177Z,101506.55
2019-04-20T01:41:16.130Z,101510.31
2019-04-20T01:43:45.886Z,101511.69
2019-04-20T01:46:18.766Z,101512.18
2019-04-20T01:48:45.071Z,101515.41
2019-04-20T01:51:22.831Z,101513.70
2019-04-20T01:54:07.076Z,101519.67
2019-04-20T01:56:36.155Z,101512.48
2019-04-20T01:59:15.783Z,101519.33
2019-04-20T02:01:36.208Z,101522.56
2019-04-20T02:04:11.672Z,101538.98
2019-04-20T02:06:44.411Z,101536.90
2019-04-20T02:09:13.626Z,101530.89
2019-04-20T02:11:42.953Z,101529.18
2019-04-20T02:14:11.989Z,101532.41
2019-04-20T02:16:47.108Z,101524.35
2019-04-20T02:19:28.987Z,101532.06
2019-04-20T02:21:55.474Z,101529.48
2019-04-20T02:24:12.529Z,101531.34
2019-04-20T02:26:41.012Z,101529.63
2019-04-20T02:29:37.332Z,101531.00
2019-04-20T02:32:23.689Z,101532.02
2019-04-20T02:34:55.537Z,101529.63
2019-04-20T02:37:36.621Z,101536.13
2019-04-20T02:40:07.236Z,101531.64
2019-04-20T02:42:44.787Z,101528.91
2019-04-20T02:45:11.207Z,101531.30
2019-04-20T02:52:38.044Z,101531.45
2019-04-20T02:57:40.330Z,101533.99
2019-04-20T03:00:10.394Z,101531.25
2019-04-20T03:02:18.423Z,101528.86
2019-04-20T03:04:43.426Z,101531.25
2019-04-20T03:07:14.903Z,101528.63
2019-04-20T03:09:50.139Z,101531.38
2019-04-20T03:12:31.224Z,101530.53
2019-04-20T03:14:47.815Z,101534.98
2019-04-20T03:17:29.732Z,101529.16
2019-04-20T03:19:51.253Z,101532.89
2019-04-20T03:22:34.937Z,101527.07
2019-04-20T03:24:59.756Z,101530.30
2019-04-20T03:27:25.382Z,101528.09
2019-04-20T03:29:57.825Z,101529.95
2019-04-20T03:32:58.322Z,101526.34
2019-04-20T03:35:12.180Z,101527.38
2019-04-20T03:37:37.604Z,101526.34
2019-04-20T03:39:56.781Z,101530.11
2019-04-20T03:42:12.513Z,101529.23
2019-04-20T03:44:50.474Z,101536.60
2019-04-20T03:47:23.184Z,101537.59
2019-04-20T03:50:06.282Z,101533.48
2019-04-20T03:52:43.099Z,101539.64
2019-04-20T03:55:16.479Z,101543.22
2019-04-20T03:58:03.395Z,101536.03
2019-04-20T04:00:36.257Z,101537.40
2019-04-20T04:03:34.946Z,101537.89
2019-04-20T04:05:55.963Z,101541.65
2019-04-20T04:08:23.717Z,101538.42
2019-04-20T04:11:01.493Z,101537.20
2019-04-20T04:13:18.774Z,101539.06
2019-04-20T04:15:55.049Z,101542.82
2019-04-20T04:18:26.264Z,101533.39
2019-04-20T04:20:58.658Z,101544.69
2019-04-20T04:23:38.337Z,101547.08
2019-04-20T04:26:08.600Z,101541.60
2019-04-20T04:28:36.964Z,101539.21
2019-04-20T04:33:54.638Z,101542.97
2019-04-20T04:36:08.915Z,101548.78
2019-04-20T04:38:41.934Z,101552.55
2019-04-20T04:43:40.099Z,101555.63
2019-04-20T04:45:51.669Z,101550.16
2019-04-20T04:48:27.491Z,101558.71
2019-04-20T04:50:59.059Z,101553.77
2019-04-20T04:53:33.801Z,101557.20
2019-04-20T04:55:58.544Z,101556.35
2019-04-20T04:58:21.728Z,101560.46
2019-04-20T05:00:51.422Z,101563.20
2019-04-20T05:03:38.733Z,101569.02
2019-04-20T05:06:11.706Z,101569.02
2019-04-20T05:08:31.590Z,101570.73
2019-04-20T05:10:54.178Z,101570.73
2019-04-20T05:13:27.666Z,101572.97
2019-04-20T05:16:10.992Z,101574.54
2019-04-20T05:18:44.769Z,101577.66
2019-04-20T05:21:18.811Z,101576.63
2019-04-20T05:23:37.588Z,101581.08
2019-04-20T05:26:20.403Z,101582.83
2019-04-20T05:28:42.024Z,101585.91
2019-04-20T05:31:03.599Z,101586.64
2019-04-20T05:33:57.095Z,101579.65
2019-04-20T05:36:18.542Z,101588.44
2019-04-20T05:38:59.105Z,101589.85
2019-04-20T05:41:20.168Z,101583.93
2019-04-20T05:44:06.423Z,101587.28
2019-04-20T05:46:37.253Z,101585.23
2019-04-20T05:49:13.792Z,101588.05
2019-04-20T05:51:41.765Z,101586.53
2019-04-20T05:54:09.855Z,101587.75
2019-04-20T05:56:42.400Z,101591.90
2019-04-20T05:59:07.056Z,101594.34
2019-04-20T06:01:47.721Z,101599.02
2019-04-20T06:04:11.607Z,101601.30
2019-04-20T06:06:37.698Z,101594.53
2019-04-20T06:11:47.957Z,101606.30
2019-04-20T06:14:04.999Z,101605.84
2019-04-20T06:16:54.031Z,101609.34
2019-04-20T06:19:26.071Z,101612.66
2019-04-20T06:22:06.401Z,101615.16
2019-04-20T06:24:39.377Z,101614.89
2019-04-20T06:27:06.017Z,101618.61
2019-04-20T06:29:26.338Z,101615.78
2019-04-20T06:32:05.141Z,101617.25
2019-04-20T06:37:00.504Z,101622.09
2019-04-20T06:42:12.507Z,101617.00
2019-04-20T06:44:36.845Z,101619.55
2019-04-20T06:47:08.676Z,101621.73
2019-04-20T06:52:25.669Z,101625.37
2019-04-20T06:55:38.151Z,101632.32
2019-04-20T06:57:40.352Z,101628.11
2019-04-20T07:00:12.781Z,101630.96
2019-04-20T07:02:41.755Z,101628.82
2019-04-20T07:05:13.850Z,101625.76
2019-04-20T07:07:43.226Z,101623.77
2019-04-20T07:10:14.087Z,101624.82
2019-04-20T07:12:37.997Z,101627.78
2019-04-20T07:15:01.793Z,101624.54
2019-04-20T07:20:11.589Z,101627.03
2019-04-20T07:23:09.761Z,101632.58
2019-04-20T07:25:19.033Z,101633.11
2019-04-20T07:27:48.969Z,101635.56
2019-04-20T07:30:19.627Z,101629.92
2019-04-20T07:32:52.609Z,101630.63
2019-04-20T07:35:23.248Z,101639.58
2019-04-20T07:38:11.506Z,101641.64
2019-04-20T07:40:23.195Z,101639.78
2019-04-20T07:42:51.823Z,101636.22
2019-04-20T07:45:27.149Z,101638.62
2019-04-20T07:47:52.668Z,101638.97
2019-04-20T07:50:13.210Z,101639.00
2019-04-20T07:52:43.238Z,101633.83
2019-04-20T07:57:46.666Z,101630.73
2019-04-20T08:00:32.147Z,101625.89
2019-04-20T08:03:18.451Z,101622.81
2019-04-20T08:05:36.942Z,101623.81
2019-04-20T08:08:10.617Z,101619.38
2019-04-20T08:10:46.837Z,101613.34
2019-04-20T08:15:49.485Z,101617.97
2019-04-20T08:18:21.388Z,101623.11
2019-04-20T08:20:45.690Z,101617.93
2019-04-20T08:23:20.295Z,101623.09
2019-04-20T08:25:36.135Z,101628.75
2019-04-20T08:27:57.365Z,101619.60
2019-04-20T08:30:57.255Z,101619.27
2019-04-20T08:33:30.881Z,101621.67
2019-04-20T08:36:09.274Z,101618.38
2019-04-20T08:40:58.005Z,101619.91
2019-04-20T08:43:43.619Z,101626.13
2019-04-20T08:46:10.377Z,101619.05
2019-04-20T08:48:34.423Z,101611.94
2019-04-20T08:51:03.674Z,101617.09
2019-04-20T08:53:50.737Z,101613.10
2019-04-20T08:55:56.990Z,101615.38
2019-04-20T08:58:13.758Z,101605.68
2019-04-20T09:00:50.105Z,101582.78
2019-04-20T09:03:19.957Z,101580.37
2019-04-20T09:05:52.303Z,101579.98
2019-04-20T09:08:18.907Z,101580.22
2019-04-20T09:11:02.693Z,101577.09
2019-04-20T09:13:25.990Z,101578.59
2019-04-20T09:15:44.726Z,101580.09
2019-04-20T09:18:22.861Z,101575.87
2019-04-20T09:20:52.919Z,101566.87
2019-04-20T09:23:31.399Z,101569.06
2019-04-20T09:26:04.785Z,101570.97
2019-04-20T09:28:32.289Z,101554.95
2019-04-20T09:31:11.944Z,101556.31
2019-04-20T09:33:51.352Z,101560.65
2019-04-20T09:36:18.503Z,101555.48
2019-04-20T09:39:05.940Z,101556.59
2019-04-20T09:41:59.719Z,101548.69
2019-04-20T09:44:13.417Z,101552.34
2019-04-20T09:46:50.061Z,101545.13
2019-04-20T09:49:23.683Z,101545.63
2019-04-20T09:52:01.701Z,101545.06
2019-04-20T09:54:31.014Z,101535.47
2019-04-20T09:57:03.716Z,101532.14
2019-04-20T09:59:33.130Z,101559.02
2019-04-20T10:01:55.536Z,101534.30
2019-04-20T10:04:17.427Z,101529.26
2019-04-20T10:06:47.561Z,101523.94
2019-04-20T10:09:20.400Z,101527.73
2019-04-20T10:11:47.536Z,101519.30
2019-04-20T10:14:16.500Z,101517.60
2019-04-20T10:16:44.913Z,101521.11
2019-04-20T10:19:13.659Z,101508.94
2019-04-20T10:21:43.570Z,101514.25
2019-04-20T10:24:12.555Z,101506.25
2019-04-20T10:26:41.107Z,101506.12
2019-04-20T10:29:09.935Z,101530.53
2019-04-20T10:31:44.616Z,101506.78
2019-04-20T10:34:09.516Z,101510.27
2019-04-20T10:36:39.698Z,101499.61
2019-04-20T10:39:09.056Z,101496.95
2019-04-20T10:41:46.475Z,101493.09
2019-04-20T10:44:09.084Z,101497.16
2019-04-20T10:46:38.849Z,101500.18
2019-04-20T10:49:08.301Z,101503.15
2019-04-20T10:51:37.890Z,101499.33
2019-04-20T10:54:06.736Z,101484.18
2019-04-20T10:56:35.222Z,101481.61
2019-04-20T10:59:03.827Z,101483.91
2019-04-20T11:01:33.680Z,101479.21
2019-04-20T11:04:03.005Z,101479.62
2019-04-20T11:06:32.381Z,101489.25
2019-04-20T11:09:00.862Z,101476.36
2019-04-20T11:11:31.728Z,101474.74
2019-04-20T11:14:06.593Z,101476.83
2019-04-20T11:16:30.608Z,101477.30
2019-04-20T11:18:59.182Z,101466.56
2019-04-20T11:21:28.273Z,101462.46
2019-04-20T11:23:56.769Z,101456.47
2019-04-20T11:26:26.481Z,101456.75
2019-04-20T11:28:55.895Z,101456.00
2019-04-20T11:31:26.872Z,101457.55
2019-04-20T11:33:54.590Z,101456.96
2019-04-20T11:36:23.288Z,101467.42
2019-04-20T11:38:53.046Z,101454.61
2019-04-20T11:41:26.060Z,101451.70
2019-04-20T11:43:53.522Z,101452.14
2019-04-20T11:46:22.835Z,101470.95
2019-04-20T11:48:51.848Z,101444.48
2019-04-20T11:51:21.538Z,101452.45
2019-04-20T11:53:50.222Z,101442.61
2019-04-20T11:56:23.920Z,101431.15
2019-04-20T11:58:49.220Z,101441.94
2019-04-20T12:01:41.328Z,101435.19
2019-04-20T12:04:22.751Z,101429.59
2019-04-20T12:06:35.412Z,101424.11
2019-04-20T12:09:05.632Z,101425.58
2019-04-20T12:11:52.744Z,101423.39
2019-04-20T12:14:04.734Z,101425.23
2019-04-20T12:16:33.242Z,101420.45
2019-04-20T12:19:02.236Z,101423.89
2019-04-20T12:21:30.799Z,101430.13
2019-04-20T12:24:00.378Z,101435.63
2019-04-20T12:26:29.099Z,101422.51
2019-04-20T12:28:58.004Z,101412.13
2019-04-20T12:31:27.681Z,101411.45
2019-04-20T12:33:56.217Z,101422.29
2019-04-20T12:36:25.973Z,101405.68
2019-04-20T12:38:55.029Z,101406.94
2019-04-20T12:41:34.495Z,101409.68
2019-04-20T12:43:53.901Z,101405.80
2019-04-20T12:46:23.415Z,101415.93
2019-04-20T12:48:53.537Z,101409.81
2019-04-20T12:51:25.178Z,101406.72
2019-04-20T12:53:52.850Z,101405.46
2019-04-20T12:56:22.385Z,101395.63
2019-04-20T12:58:51.620Z,101393.16
2019-04-20T13:01:22.398Z,101388.84
2019-04-20T13:03:50.597Z,101385.91
2019-04-20T13:06:19.612Z,101389.00
2019-04-20T13:08:53.424Z,101385.31
2019-04-20T13:11:22.874Z,101386.98
2019-04-20T13:13:56.590Z,101380.23
2019-04-20T13:16:30.372Z,101390.54
2019-04-20T13:19:01.511Z,101384.44
2019-04-20T13:21:31.145Z,101383.94
2019-04-20T13:24:00.895Z,101372.39
2019-04-20T13:26:30.900Z,101361.05
2019-04-20T13:28:59.529Z,101363.59
2019-04-20T13:31:27.991Z,101355.61
2019-04-20T13:33:57.186Z,101349.45
2019-04-20T13:36:26.219Z,101345.91
2019-04-20T13:38:54.793Z,101335.47
2019-04-20T13:41:24.601Z,101328.11
2019-04-20T13:43:55.814Z,101333.27
2019-04-20T13:46:24.626Z,101334.20
2019-04-20T13:48:53.458Z,101323.72
2019-04-20T13:51:23.034Z,101328.06
2019-04-20T13:53:53.122Z,101329.61
2019-04-20T13:56:23.790Z,101323.30
2019-04-20T13:58:59.866Z,101318.83
2019-04-20T14:01:35.762Z,101330.72
2019-04-20T14:04:08.211Z,101320.03
2019-04-20T14:06:37.353Z,101317.64
2019-04-20T14:09:09.627Z,101316.97
2019-04-20T14:11:39.186Z,101309.93
2019-04-20T14:14:08.361Z,101307.55
2019-04-20T14:16:37.061Z,101315.66
2019-04-20T14:19:05.594Z,101296.03
2019-04-20T14:21:34.333Z,101293.97
2019-04-20T14:24:04.205Z,101292.61
2019-04-20T14:26:35.721Z,101290.03
2019-04-20T14:29:03.544Z,101281.95
2019-04-20T14:31:32.170Z,101280.57
2019-04-20T14:34:00.764Z,101282.14
2019-04-20T14:36:29.227Z,101278.22
2019-04-20T14:38:58.280Z,101279.07
2019-04-20T14:41:26.780Z,101276.49
2019-04-20T14:43:55.384Z,101274.60
2019-04-20T14:46:26.210Z,101278.36
2019-04-20T14:48:54.593Z,101266.16
2019-04-20T14:51:23.795Z,101271.30
2019-04-20T14:53:53.667Z,101267.19
2019-04-20T14:56:23.404Z,101265.48
2019-04-20T14:58:53.708Z,101271.52
2019-04-20T15:01:24.714Z,101266.87
2019-04-20T15:03:59.879Z,101260.50
2019-04-20T15:06:23.531Z,101258.79
2019-04-20T15:08:52.564Z,101253.47
2019-04-20T15:11:21.220Z,101248.32
2019-04-20T15:13:50.881Z,101254.33
2019-04-20T15:16:32.729Z,101248.67
2019-04-20T15:19:03.174Z,101255.70
2019-04-20T15:21:33.529Z,101252.62
2019-04-20T15:24:02.040Z,101249.67
2019-04-20T15:26:30.813Z,101246.93
2019-04-20T15:29:00.001Z,101245.89
2019-04-20T15:31:28.511Z,101246.25
2019-04-20T15:33:57.104Z,101246.91
2019-04-20T15:36:26.275Z,101249.16
2019-04-20T15:38:54.678Z,101232.16
2019-04-20T15:41:23.204Z,101233.18
2019-04-20T15:43:51.683Z,101230.44
2019-04-20T15:46:21.337Z,101223.73
2019-04-20T15:48:50.272Z,101227.36
2019-04-20T15:51:19.470Z,101228.37
2019-04-20T15:53:49.522Z,101217.37
2019-04-20T15:56:18.652Z,101220.98
2019-04-20T15:58:48.393Z,101220.98
2019-04-20T16:01:18.559Z,101218.06
2019-04-20T16:03:48.673Z,101225.44
2019-04-20T16:06:17.213Z,101222.52
2019-04-20T16:08:48.204Z,101221.34
2019-04-20T16:11:17.333Z,101218.40
2019-04-20T16:13:49.982Z,101218.94
2019-04-20T16:16:16.323Z,101210.17
2019-04-20T16:18:45.227Z,101211.90
2019-04-20T16:21:20.867Z,101209.66
2019-04-20T16:23:48.429Z,101207.95
2019-04-20T16:26:19.825Z,101207.45
2019-04-20T16:28:48.261Z,101201.77
2019-04-20T16:31:18.193Z,101205.38
2019-04-20T16:33:46.963Z,101202.98
2019-04-20T16:36:16.516Z,101201.27
2019-04-20T16:38:45.590Z,101194.22
2019-04-20T16:41:14.636Z,101191.97
2019-04-20T16:43:45.986Z,101195.08
2019-04-20T16:46:13.428Z,101183.91
2019-04-20T16:48:42.184Z,101185.45
2019-04-20T16:51:11.017Z,101184.62
2019-04-20T16:53:39.669Z,101178.58
2019-04-20T16:56:08.624Z,101180.83
2019-04-20T16:58:37.902Z,101172.42
2019-04-20T17:01:07.671Z,101172.42
2019-04-20T17:03:48.872Z,101169.66
2019-04-20T17:06:06.767Z,101169.33
2019-04-20T17:08:36.556Z,101172.41
2019-04-20T17:11:05.620Z,101172.59
2019-04-20T17:13:40.488Z,101165.72
2019-04-20T17:16:05.836Z,101162.81
2019-04-20T17:18:34.513Z,101170.36
2019-04-20T17:21:05.869Z,101165.23
2019-04-20T17:23:33.384Z,101161.95
2019-04-20T17:26:03.992Z,101167.98
2019-04-20T17:28:52.454Z,101171.41
2019-04-20T17:31:25.253Z,101171.58
2019-04-20T17:34:06.598Z,101169.01
2019-04-20T17:36:30.785Z,101170.38
2019-04-20T17:38:59.761Z,101167.80
2019-04-20T17:41:46.985Z,101172.09
2019-04-20T17:44:14.225Z,101165.06
2019-04-20T17:46:39.153Z,101174.67
2019-04-20T17:49:13.625Z,101167.98
2019-04-20T17:51:54.917Z,101171.06
2019-04-20T17:54:07.124Z,101168.99
2019-04-20T17:56:36.248Z,101168.66
2019-04-20T17:59:06.126Z,101176.39
2019-04-20T18:02:06.670Z,101181.35
2019-04-20T18:04:53.769Z,101177.94
2019-04-20T18:07:09.743Z,101181.52
2019-04-20T18:09:54.523Z,101177.42
2019-04-20T18:12:03.332Z,101181.71
2019-04-20T18:14:43.159Z,101173.14
2019-04-20T18:17:15.041Z,101174.15
2019-04-20T18:19:34.926Z,101178.63
2019-04-20T18:22:07.970Z,101175.89
2019-04-20T18:25:02.601Z,101177.41
2019-04-20T18:27:27.938Z,101177.03
2019-04-20T18:29:54.506Z,101175.83
2019-04-20T18:32:25.357Z,101181.00
2019-04-20T18:35:00.870Z,101175.14
2019-04-20T18:37:27.449Z,101183.91
2019-04-20T18:40:03.109Z,101180.80
2019-04-20T18:42:31.264Z,101184.77
2019-04-20T18:45:12.429Z,101183.89
2019-04-20T18:47:48.090Z,101186.81
2019-04-20T18:50:07.400Z,101186.81
2019-04-20T18:52:27.543Z,101182.69
2019-04-20T18:54:57.510Z,101191.47
2019-04-20T18:57:29.282Z,101191.64
2019-04-20T18:59:58.451Z,101193.52
2019-04-20T19:02:31.178Z,101195.06
2019-04-20T19:04:58.587Z,101196.44
2019-04-20T19:07:27.974Z,101197.11
2019-04-20T19:10:05.750Z,101200.02
2019-04-20T19:12:41.254Z,101200.56
2019-04-20T19:15:28.022Z,101202.08
2019-04-20T19:17:49.705Z,101195.38
2019-04-20T19:20:20.220Z,101201.04
2019-04-20T19:22:50.074Z,101201.75
2019-04-20T19:25:27.159Z,101205.16
2019-04-20T19:27:53.926Z,101195.73
2019-04-20T19:30:31.543Z,101191.28
2019-04-20T19:33:09.203Z,101191.45
2019-04-20T19:35:33.959Z,101198.14
2019-04-20T19:38:03.305Z,101188.17
2019-04-20T19:40:33.745Z,101194.19
2019-04-20T19:43:02.393Z,101190.25
2019-04-20T19:45:56.915Z,101193.83
2019-04-20T19:48:09.330Z,101195.38
2019-04-20T19:50:46.561Z,101201.54
2019-04-20T19:53:16.453Z,101199.83
2019-04-20T19:55:37.812Z,101195.02
2019-04-20T19:58:09.746Z,101192.95
2019-04-20T20:00:25.231Z,101192.28
2019-04-20T20:02:54.164Z,101189.17
2019-04-20T20:05:28.956Z,101190.38
2019-04-20T20:08:03.541Z,101189.51
2019-04-20T20:10:27.973Z,101188.67
2019-04-20T20:13:00.283Z,101184.19
2019-04-20T20:15:29.652Z,101183.52
2019-04-20T20:18:12.426Z,101189.17
2019-04-20T20:20:45.583Z,101188.30
2019-04-20T20:22:57.305Z,101190.55
2019-04-20T20:25:29.608Z,101194.47
2019-04-20T20:27:58.493Z,101191.89
2019-04-20T20:30:33.163Z,101191.89
2019-04-20T20:33:13.843Z,101190.52
2019-04-20T20:35:28.674Z,101196.00
2019-04-20T20:37:57.831Z,101195.14
2019-04-20T20:40:32.289Z,101194.80
2019-04-20T20:43:07.312Z,101195.30
2019-04-20T20:45:33.679Z,101201.50
2019-04-20T20:48:15.829Z,101198.75
2019-04-20T20:50:48.880Z,101198.92
2019-04-20T20:53:05.116Z,101201.66
2019-04-20T20:55:34.451Z,101197.18
2019-04-20T20:58:06.512Z,101194.57
2019-04-20T21:00:41.891Z,101196.11
2019-04-20T21:03:02.762Z,101196.28
2019-04-20T21:05:27.642Z,101199.56
2019-04-20T21:07:57.415Z,101190.95
2019-04-20T21:10:34.500Z,101200.56
2019-04-20T21:13:01.084Z,101197.98
2019-04-20T21:15:28.123Z,101194.91
2019-04-20T21:18:20.956Z,101194.04
2019-04-20T21:20:47.910Z,101191.46
2019-04-20T21:23:13.902Z,101194.70
2019-04-20T21:25:34.606Z,101193.00
2019-04-20T21:28:02.585Z,101192.30
2019-04-20T21:30:38.044Z,101195.05
2019-04-20T21:33:03.642Z,101189.39
2019-04-20T21:35:37.991Z,101186.64
2019-04-20T21:38:06.594Z,101193.17
2019-04-20T21:40:39.369Z,101190.59
2019-04-20T21:43:06.983Z,101189.72
2019-04-20T21:45:36.093Z,101193.14
2019-04-20T21:48:09.637Z,101195.87
2019-04-20T21:50:53.521Z,101185.23
2019-04-20T21:53:11.885Z,101179.75
2019-04-20T21:55:34.200Z,101181.83
2019-04-20T21:58:05.344Z,101178.22
2019-04-20T22:00:42.514Z,101172.90
2019-04-20T22:03:11.305Z,101175.64
2019-04-20T22:05:38.208Z,101175.44
2019-04-20T22:08:10.574Z,101180.09
2019-04-20T22:10:36.925Z,101178.72
2019-04-20T22:13:06.276Z,101167.55
2019-04-20T22:15:40.699Z,101173.03
2019-04-20T22:18:09.698Z,101176.64
2019-04-20T22:20:49.434Z,101179.72
2019-04-20T22:23:15.938Z,101184.33
2019-04-20T22:25:52.854Z,101176.64
2019-04-20T22:28:06.998Z,101177.64
2019-04-20T22:30:35.984Z,101173.69
2019-04-20T22:33:06.203Z,101177.47
2019-04-20T22:35:36.069Z,101172.48
2019-04-20T22:38:10.527Z,101173.19
2019-04-20T22:40:37.066Z,101173.32
2019-04-20T22:43:06.374Z,101163.73
2019-04-20T22:45:42.184Z,101159.78
2019-04-20T22:48:09.046Z,101165.63
2019-04-20T22:50:51.319Z,101158.94
2019-04-20T22:53:22.685Z,101161.84
2019-04-20T22:56:04.398Z,101163.22
2019-04-20T22:58:23.659Z,101156.53
2019-04-20T23:00:46.749Z,101150.18
2019-04-20T23:03:07.177Z,101151.55
2019-04-20T23:05:36.569Z,101147.94
2019-04-20T23:08:06.593Z,101148.11
2019-04-20T23:10:39.993Z,101142.63
2019-04-20T23:13:07.309Z,101145.53
2019-04-20T23:15:36.323Z,101142.79
2019-04-20T23:18:06.230Z,101139.21
2019-04-20T23:20:38.720Z,101141.08
2019-04-20T23:23:05.058Z,101135.59
2019-04-20T23:25:33.631Z,101137.84
2019-04-20T23:28:08.181Z,101132.52
2019-04-20T23:30:37.483Z,101134.73
2019-04-20T23:33:02.495Z,101130.78
2019-04-20T23:35:31.803Z,101130.28
2019-04-20T23:38:07.580Z,101126.67
2019-04-20T23:40:31.926Z,101121.36
2019-04-20T23:43:02.115Z,101115.55
2019-04-20T23:45:43.857Z,101115.55
2019-04-20T23:48:30.499Z,101114.67
2019-04-20T23:51:10.271Z,101113.84
2019-04-20T23:53:40.258Z,101111.77
2019-04-20T23:55:57.595Z,101118.95
2019-04-20T23:58:26.473Z,101107.28
